createdAt,value
2023-04-13T00:00:54.146Z,32.02
2023-04-13T00:03:22.092Z,32.16
2023-04-13T00:05:53.075Z,32.11
2023-04-13T00:08:23.353Z,32.16
2023-04-13T00:10:51.259Z,32.28
2023-04-13T00:13:18.998Z,32.58
2023-04-13T00:15:47.083Z,32.38
2023-04-13T00:18:14.621Z,32.43
2023-04-13T00:20:43.642Z,32.58
2023-04-13T00:23:11.899Z,32.32
2023-04-13T00:25:39.330Z,32.60
2023-04-13T00:28:07.299Z,32.86
2023-04-13T00:30:35.027Z,32.96
2023-04-13T00:33:06.126Z,33.15
2023-04-13T00:35:34.012Z,33.14
2023-04-13T00:38:03.081Z,33.09
2023-04-13T00:40:31.144Z,33.57
2023-04-13T00:43:00.743Z,33.40
2023-04-13T00:45:28.434Z,33.65
2023-04-13T00:47:58.108Z,33.64
2023-04-13T00:50:25.962Z,33.67
2023-04-13T00:52:53.799Z,34.12
2023-04-13T00:55:22.075Z,33.79
2023-04-13T00:57:53.500Z,34.07
2023-04-13T01:00:22.059Z,34.12
2023-04-13T01:02:52.764Z,34.26
2023-04-13T01:05:21.573Z,34.20
2023-04-13T01:08:26.133Z,34.48
2023-04-13T01:11:01.108Z,34.22
2023-04-13T01:13:31.624Z,34.24
2023-04-13T01:16:04.198Z,34.17
2023-04-13T01:18:39.515Z,34.03
2023-04-13T01:21:14.359Z,34.55
2023-04-13T01:24:03.671Z,34.21
2023-04-13T01:26:52.465Z,34.69
2023-04-13T01:29:20.668Z,33.90
2023-04-13T01:31:50.769Z,34.88
2023-04-13T01:34:18.572Z,34.61
2023-04-13T01:36:46.759Z,34.51
2023-04-13T01:39:21.752Z,35.13
2023-04-13T01:41:58.489Z,34.71
2023-04-13T01:44:33.042Z,35.04
2023-04-13T01:47:16.411Z,35.04
2023-04-13T01:50:18.243Z,35.27
2023-04-13T01:52:55.422Z,34.60
2023-04-13T01:55:24.149Z,34.64
2023-04-13T01:57:58.610Z,34.87
2023-04-13T02:00:33.407Z,35.07
2023-04-13T02:03:05.229Z,34.87
2023-04-13T02:05:34.175Z,35.62
2023-04-13T02:08:03.870Z,35.12
2023-04-13T02:10:34.692Z,35.48
2023-04-13T02:13:04.195Z,35.14
2023-04-13T02:15:36.116Z,35.16
2023-04-13T02:18:04.929Z,35.49
2023-04-13T02:20:45.310Z,35.97
2023-04-13T02:23:16.745Z,35.37
2023-04-13T02:25:47.856Z,35.78
2023-04-13T02:28:18.133Z,35.70
2023-04-13T02:30:47.340Z,35.78
2023-04-13T02:33:15.013Z,35.63
2023-04-13T02:35:42.613Z,35.74
2023-04-13T02:38:11.805Z,35.56
2023-04-13T02:40:44.050Z,35.58
2023-04-13T02:43:14.136Z,35.71
2023-04-13T02:45:42.868Z,35.77
2023-04-13T02:48:21.433Z,36.13
2023-04-13T02:50:49.340Z,36.07
2023-04-13T02:53:22.291Z,35.97
2023-04-13T02:55:55.702Z,35.64
2023-04-13T02:58:24.254Z,36.09
2023-04-13T03:00:58.916Z,36.06
2023-04-13T03:03:26.967Z,36.28
2023-04-13T03:05:54.582Z,35.66
2023-04-13T03:08:27.560Z,35.85
2023-04-13T03:11:28.230Z,35.40
2023-04-13T03:14:21.543Z,35.80
2023-04-13T03:16:55.488Z,36.01
2023-04-13T03:19:27.228Z,35.87
2023-04-13T03:21:55.067Z,35.75
2023-04-13T03:24:27.550Z,35.62
2023-04-13T03:26:58.129Z,35.64
2023-04-13T03:29:34.373Z,35.46
2023-04-13T03:32:02.044Z,35.35
2023-04-13T03:34:33.222Z,35.63
2023-04-13T03:37:06.472Z,35.61
2023-04-13T03:39:34.028Z,35.54
2023-04-13T03:42:02.611Z,35.50
2023-04-13T03:44:31.579Z,35.58
2023-04-13T03:47:01.333Z,35.50
2023-04-13T03:49:34.695Z,35.81
2023-04-13T03:52:02.544Z,35.66
2023-04-13T03:54:36.131Z,35.65
2023-04-13T03:57:05.278Z,35.65
2023-04-13T03:59:34.540Z,35.70
2023-04-13T04:02:04.141Z,35.57
2023-04-13T04:04:35.090Z,35.23
2023-04-13T04:07:02.695Z,35.25
2023-04-13T04:09:30.213Z,35.42
2023-04-13T04:11:58.166Z,35.44
2023-04-13T04:14:37.533Z,35.06
2023-04-13T04:17:14.187Z,34.65
2023-04-13T04:19:41.886Z,34.94
2023-04-13T04:22:10.083Z,34.64
2023-04-13T04:24:42.565Z,34.17
2023-04-13T04:27:10.324Z,34.10
2023-04-13T04:29:38.322Z,33.75
2023-04-13T04:32:24.243Z,33.75
2023-04-13T04:34:53.717Z,33.72
2023-04-13T04:37:23.504Z,33.59
2023-04-13T04:40:08.336Z,33.74
2023-04-13T04:42:39.345Z,33.40
2023-04-13T04:45:17.493Z,33.18
2023-04-13T04:47:50.487Z,33.16
2023-04-13T04:50:21.694Z,33.11
2023-04-13T04:52:55.802Z,32.96
2023-04-13T04:55:25.397Z,32.94
2023-04-13T04:57:53.245Z,32.70
2023-04-13T05:00:26.388Z,32.26
2023-04-13T05:03:02.920Z,32.31
2023-04-13T05:05:31.007Z,32.49
2023-04-13T05:08:03.459Z,32.17
2023-04-13T05:10:31.270Z,31.77
2023-04-13T05:12:59.120Z,31.93
2023-04-13T05:15:28.373Z,31.48
2023-04-13T05:17:56.545Z,31.52
2023-04-13T05:20:28.108Z,31.02
2023-04-13T05:23:05.660Z,31.00
2023-04-13T05:25:40.894Z,30.97
2023-04-13T05:28:16.853Z,31.33
2023-04-13T05:30:45.517Z,31.53
2023-04-13T05:33:13.025Z,30.56
2023-04-13T05:35:42.388Z,30.44
2023-04-13T05:38:10.744Z,30.17
2023-04-13T05:40:39.471Z,30.13
2023-04-13T05:43:07.684Z,30.17
2023-04-13T05:45:41.170Z,29.83
2023-04-13T05:48:13.909Z,29.64
2023-04-13T05:50:43.863Z,29.52
2023-04-13T05:53:12.860Z,29.13
2023-04-13T05:55:48.351Z,28.98
2023-04-13T05:58:19.064Z,28.52
2023-04-13T06:00:49.196Z,28.24
2023-04-13T06:03:27.567Z,27.82
2023-04-13T06:05:56.810Z,27.66
2023-04-13T06:08:24.484Z,27.00
2023-04-13T06:10:52.436Z,26.86
2023-04-13T06:13:19.899Z,26.75
2023-04-13T06:15:47.412Z,26.31
2023-04-13T06:18:15.036Z,26.12
2023-04-13T06:20:42.905Z,26.15
2023-04-13T06:23:10.495Z,26.39
2023-04-13T06:25:38.822Z,26.42
2023-04-13T06:28:07.723Z,26.51
2023-04-13T06:30:40.201Z,26.41
2023-04-13T06:33:11.492Z,26.12
2023-04-13T06:35:41.147Z,25.98
2023-04-13T06:38:10.275Z,26.13
2023-04-13T06:40:50.302Z,26.13
2023-04-13T06:43:29.024Z,25.87
2023-04-13T06:46:18.351Z,25.97
2023-04-13T06:48:49.998Z,25.70
2023-04-13T06:51:21.934Z,25.54
2023-04-13T06:53:51.572Z,25.27
2023-04-13T06:56:19.164Z,24.72
2023-04-13T06:58:47.282Z,24.67
2023-04-13T07:01:16.450Z,24.53
2023-04-13T07:03:45.485Z,24.55
2023-04-13T07:06:15.795Z,24.52
2023-04-13T07:08:43.756Z,25.02
2023-04-13T07:11:11.553Z,24.29
2023-04-13T07:13:40.296Z,24.08
2023-04-13T07:16:12.442Z,23.76
2023-04-13T07:18:44.007Z,23.30
2023-04-13T07:21:11.944Z,22.95
2023-04-13T07:23:56.321Z,22.72
2023-04-13T07:26:24.694Z,22.73
2023-04-13T07:28:52.152Z,22.87
2023-04-13T07:31:23.457Z,23.07
2023-04-13T07:33:54.536Z,23.55
2023-04-13T07:36:29.961Z,23.71
2023-04-13T07:39:04.104Z,23.79
2023-04-13T07:41:33.357Z,24.13
2023-04-13T07:44:05.572Z,24.00
2023-04-13T07:46:54.478Z,23.94
2023-04-13T07:49:40.333Z,24.17
2023-04-13T07:52:56.613Z,23.76
2023-04-13T08:10:47.925Z,23.11
2023-04-13T08:13:42.988Z,23.08
2023-04-13T08:16:34.440Z,23.01
2023-04-13T08:19:05.276Z,22.62
2023-04-13T08:21:38.696Z,22.41
2023-04-13T08:24:06.751Z,22.07
2023-04-13T08:26:34.621Z,22.10
2023-04-13T08:29:52.293Z,22.05
2023-04-13T08:32:29.202Z,21.97
2023-04-13T08:38:14.156Z,20.63
2023-04-13T08:41:44.254Z,18.52
2023-04-13T08:49:07.458Z,17.90
2023-04-13T08:51:49.233Z,17.69
2023-04-13T08:54:35.386Z,17.71
2023-04-13T08:58:24.637Z,17.56
2023-04-13T09:01:04.886Z,17.58
2023-04-13T09:04:20.631Z,17.25
2023-04-13T09:07:26.932Z,16.60
2023-04-13T09:10:16.521Z,16.12
2023-04-13T09:13:18.638Z,16.74
2023-04-13T09:16:39.138Z,16.94
2023-04-13T09:19:44.360Z,16.98
2023-04-13T09:22:16.364Z,16.61
2023-04-13T09:24:44.166Z,16.33
2023-04-13T09:27:23.614Z,15.36
2023-04-13T09:29:53.171Z,14.87
2023-04-13T09:32:25.886Z,14.91
2023-04-13T09:35:04.818Z,14.16
2023-04-13T09:37:32.933Z,14.03
2023-04-13T09:40:10.896Z,12.76
2023-04-13T09:42:40.549Z,13.57
2023-04-13T09:45:08.986Z,13.54
2023-04-13T09:47:38.769Z,13.48
2023-04-13T09:50:31.499Z,13.06
2023-04-13T09:53:04.642Z,12.93
2023-04-13T09:55:39.157Z,11.64
2023-04-13T09:58:17.640Z,11.40
2023-04-13T10:00:50.289Z,11.41
2023-04-13T10:03:22.604Z,11.07
2023-04-13T10:05:59.580Z,10.98
2023-04-13T10:08:37.950Z,11.10
2023-04-13T10:11:14.874Z,10.90
2023-04-13T10:13:53.846Z,10.75
2023-04-13T10:16:43.021Z,10.02
2023-04-13T10:19:14.552Z,9.60
2023-04-13T10:21:46.249Z,9.79
2023-04-13T10:24:14.532Z,9.88
2023-04-13T10:26:44.202Z,9.98
2023-04-13T10:29:14.658Z,10.23
2023-04-13T10:31:47.218Z,10.47
2023-04-13T10:34:24.596Z,10.42
2023-04-13T10:36:55.374Z,11.12
2023-04-13T10:39:30.660Z,11.46
2023-04-13T10:42:01.728Z,11.11
2023-04-13T10:44:47.788Z,11.09
2023-04-13T10:47:17.506Z,10.91
2023-04-13T10:49:48.475Z,10.45
2023-04-13T10:52:16.905Z,10.15
2023-04-13T10:54:45.191Z,10.01
2023-04-13T10:57:13.603Z,9.31
2023-04-13T10:59:57.996Z,9.81
2023-04-13T11:05:42.124Z,10.86
2023-04-13T11:11:48.065Z,11.21
2023-04-13T11:14:59.248Z,10.25
2023-04-13T11:18:13.326Z,9.76
2023-04-13T11:21:07.932Z,9.01
2023-04-13T11:23:56.610Z,8.68
2023-04-13T11:26:34.914Z,9.38
2023-04-13T11:29:04.058Z,10.19
2023-04-13T11:31:42.470Z,9.72
2023-04-13T11:34:14.012Z,9.73
2023-04-13T11:37:02.691Z,9.39
2023-04-13T11:40:32.412Z,8.40
2023-04-13T11:43:03.862Z,7.58
2023-04-13T11:45:59.341Z,7.98
2023-04-13T11:48:27.516Z,7.90
2023-04-13T11:54:08.190Z,9.05
2023-04-13T11:56:38.585Z,9.62
2023-04-13T11:59:44.934Z,10.06
2023-04-13T12:02:22.022Z,10.29
2023-04-13T12:04:51.402Z,11.10
2023-04-13T12:07:19.784Z,10.93
2023-04-13T12:15:15.057Z,11.25
2023-04-13T12:17:58.156Z,11.70
2023-04-13T12:20:39.021Z,11.90
2023-04-13T12:23:27.909Z,12.38
2023-04-13T12:25:56.129Z,12.91
2023-04-13T12:28:30.734Z,14.18
2023-04-13T12:31:07.577Z,14.62
2023-04-13T12:33:35.715Z,14.76
2023-04-13T12:36:03.524Z,15.33
2023-04-13T12:38:32.846Z,15.47
2023-04-13T12:41:02.030Z,14.90
2023-04-13T12:43:29.804Z,14.50
2023-04-13T12:45:57.321Z,13.46
2023-04-13T12:48:24.822Z,13.26
2023-04-13T12:50:54.120Z,12.11
2023-04-13T12:53:21.818Z,11.31
2023-04-13T12:55:51.514Z,10.99
2023-04-13T12:58:18.996Z,11.41
2023-04-13T13:00:46.573Z,11.64
2023-04-13T13:03:17.473Z,12.69
2023-04-13T13:05:45.369Z,13.69
2023-04-13T13:08:13.054Z,14.44
2023-04-13T13:10:43.278Z,15.20
2023-04-13T13:13:11.342Z,15.53
2023-04-13T13:19:57.744Z,16.09
2023-04-13T13:22:25.435Z,16.93
2023-04-13T13:24:52.934Z,17.38
2023-04-13T13:27:58.644Z,17.90
2023-04-13T13:30:10.507Z,18.36
2023-04-13T13:32:38.111Z,18.60
2023-04-13T13:35:28.127Z,18.96
2023-04-13T13:38:29.584Z,19.20
2023-04-13T13:41:09.364Z,19.42
2023-04-13T13:47:33.228Z,19.28
2023-04-13T13:50:02.340Z,19.53
2023-04-13T13:52:36.273Z,19.80
2023-04-13T13:55:06.936Z,20.17
2023-04-13T13:57:34.471Z,20.40
2023-04-13T14:00:02.129Z,20.58
2023-04-13T14:02:39.647Z,20.69
2023-04-13T14:05:08.297Z,21.02
2023-04-13T14:07:35.717Z,21.22
2023-04-13T14:10:03.700Z,21.19
2023-04-13T14:12:31.224Z,21.11
2023-04-13T14:14:58.759Z,21.38
2023-04-13T14:17:26.435Z,21.75
2023-04-13T14:19:53.978Z,22.16
2023-04-13T14:22:21.576Z,22.02
2023-04-13T14:24:51.880Z,22.16
2023-04-13T14:27:19.404Z,22.42
2023-04-13T14:29:47.127Z,22.52
2023-04-13T14:32:14.811Z,22.82
2023-04-13T14:34:46.212Z,22.85
2023-04-13T14:37:14.792Z,22.76
2023-04-13T14:39:42.343Z,22.98
2023-04-13T14:42:12.285Z,22.99
2023-04-13T14:44:39.824Z,23.07
2023-04-13T14:47:09.289Z,23.15
2023-04-13T14:49:37.455Z,23.40
2023-04-13T14:52:04.939Z,23.85
2023-04-13T14:54:32.432Z,23.76
2023-04-13T14:56:59.948Z,23.93
2023-04-13T14:59:27.482Z,24.16
2023-04-13T15:01:55.445Z,24.04
2023-04-13T15:04:23.369Z,24.22
2023-04-13T15:06:54.355Z,24.27
2023-04-13T15:09:22.172Z,24.51
2023-04-13T15:11:50.654Z,24.54
2023-04-13T15:14:18.118Z,24.55
2023-04-13T15:16:45.858Z,24.73
2023-04-13T15:19:13.394Z,24.75
2023-04-13T15:21:41.715Z,24.84
2023-04-13T15:24:11.691Z,25.24
2023-04-13T15:26:41.119Z,25.06
2023-04-13T15:29:09.175Z,25.22
2023-04-13T15:31:38.347Z,25.47
2023-04-13T15:34:08.613Z,25.51
2023-04-13T15:36:36.610Z,25.60
2023-04-13T15:39:06.927Z,25.71
2023-04-13T15:41:34.599Z,25.73
2023-04-13T15:44:03.420Z,25.92
2023-04-13T15:46:32.705Z,26.19
2023-04-13T15:49:00.565Z,26.28
2023-04-13T15:51:28.417Z,26.00
2023-04-13T15:53:55.918Z,26.40
2023-04-13T15:56:23.455Z,26.57
2023-04-13T15:58:50.906Z,26.76
2023-04-13T16:01:18.497Z,26.65
2023-04-13T16:03:46.289Z,26.55
2023-04-13T16:15:26.373Z,27.37
2023-04-13T16:22:05.709Z,27.30
2023-04-13T16:28:54.856Z,27.59
2023-04-13T16:31:22.376Z,27.62
2023-04-13T16:33:49.847Z,27.50
2023-04-13T16:36:17.406Z,28.01
2023-04-13T16:38:46.592Z,28.51
2023-04-13T16:41:14.177Z,28.20
2023-04-13T16:43:41.648Z,28.23
2023-04-13T16:46:09.247Z,28.31
2023-04-13T16:48:36.801Z,28.47
2023-04-13T16:51:04.429Z,28.30
2023-04-13T16:53:31.906Z,28.44
2023-04-13T16:55:59.524Z,28.26
2023-04-13T16:58:29.451Z,28.69
2023-04-13T17:00:57.664Z,28.64
2023-04-13T17:03:25.385Z,28.79
2023-04-13T17:05:52.983Z,28.96
2023-04-13T17:08:21.885Z,28.98
2023-04-13T17:10:51.210Z,29.13
2023-04-13T17:13:18.903Z,29.21
2023-04-13T17:15:46.456Z,29.10
2023-04-13T17:18:15.634Z,29.07
2023-04-13T17:20:43.118Z,29.28
2023-04-13T17:23:10.770Z,29.25
2023-04-13T17:25:41.652Z,29.55
2023-04-13T17:28:09.345Z,29.39
2023-04-13T17:30:36.911Z,29.42
2023-04-13T17:33:04.748Z,29.65
2023-04-13T17:35:32.199Z,29.88
2023-04-13T17:37:59.746Z,29.60
2023-04-13T17:40:27.381Z,30.00
2023-04-13T17:42:55.692Z,29.94
2023-04-13T17:45:23.170Z,30.03
2023-04-13T17:47:50.654Z,29.82
2023-04-13T17:50:18.368Z,30.14
2023-04-13T17:52:45.929Z,30.31
2023-04-13T17:55:13.718Z,30.40
2023-04-13T17:57:41.448Z,30.62
2023-04-13T18:00:09.662Z,30.50
2023-04-13T18:02:39.456Z,30.88
2023-04-13T18:05:07.832Z,30.81
2023-04-13T18:07:37.409Z,30.97
2023-04-13T18:10:05.909Z,31.12
2023-04-13T18:12:33.645Z,31.10
2023-04-13T18:15:01.467Z,31.12
2023-04-13T18:17:31.157Z,31.29
2023-04-13T18:19:59.029Z,31.25
2023-04-13T18:22:27.168Z,31.66
2023-04-13T18:24:54.704Z,31.43
2023-04-13T18:27:27.436Z,31.69
2023-04-13T18:29:55.773Z,31.59
2023-04-13T18:32:23.954Z,31.87
2023-04-13T18:34:51.524Z,31.76
2023-04-13T18:37:19.110Z,32.15
2023-04-13T18:39:47.560Z,32.11
2023-04-13T18:42:17.929Z,32.69
2023-04-13T18:44:45.713Z,32.39
2023-04-13T18:47:13.321Z,32.52
2023-04-13T18:49:41.062Z,32.45
2023-04-13T18:52:08.898Z,32.77
2023-04-13T18:54:36.665Z,32.86
2023-04-13T18:57:04.214Z,32.85
2023-04-13T18:59:31.752Z,33.01
2023-04-13T19:01:59.370Z,32.83
2023-04-13T19:04:27.350Z,32.94
2023-04-13T19:06:54.814Z,33.06
2023-04-13T19:09:22.414Z,33.06
2023-04-13T19:11:53.513Z,34.11
2023-04-13T19:14:21.157Z,33.35
2023-04-13T19:16:52.625Z,33.40
2023-04-13T19:19:20.530Z,33.36
2023-04-13T19:21:48.055Z,33.61
2023-04-13T19:24:16.250Z,33.58
2023-04-13T19:26:43.817Z,33.54
2023-04-13T19:29:13.121Z,33.77
2023-04-13T19:31:44.243Z,33.95
2023-04-13T19:34:12.474Z,33.64
2023-04-13T19:36:40.901Z,34.01
2023-04-13T19:39:10.239Z,33.96
2023-04-13T19:41:39.185Z,34.03
2023-04-13T19:44:08.877Z,34.19
2023-04-13T19:46:36.790Z,33.85
2023-04-13T19:49:04.468Z,34.01
2023-04-13T19:51:37.439Z,34.06
2023-04-13T19:54:06.106Z,34.13
2023-04-13T19:56:36.519Z,34.22
2023-04-13T19:59:06.272Z,34.20
2023-04-13T20:01:34.644Z,34.27
2023-04-13T20:04:06.879Z,34.19
2023-04-13T20:17:34.661Z,34.55
2023-04-13T20:20:10.664Z,34.58
2023-04-13T20:22:41.027Z,34.46
2023-04-13T20:29:13.903Z,34.89
2023-04-13T20:32:07.223Z,34.68
2023-04-13T20:34:35.134Z,34.79
2023-04-13T20:37:02.924Z,34.63
2023-04-13T20:39:30.643Z,34.37
2023-04-13T20:42:00.924Z,34.47
2023-04-13T20:44:29.353Z,34.40
2023-04-13T20:46:57.594Z,34.64
2023-04-13T20:49:25.184Z,34.63
2023-04-13T20:51:57.351Z,34.38
2023-04-13T20:54:24.989Z,34.60
2023-04-13T20:56:52.467Z,34.46
2023-04-13T20:59:19.928Z,35.09
2023-04-13T21:01:49.061Z,34.46
2023-04-13T21:04:17.283Z,34.79
2023-04-13T21:06:45.125Z,34.53
2023-04-13T21:09:12.594Z,34.56
2023-04-13T21:11:41.494Z,34.46
2023-04-13T21:14:08.972Z,34.54
2023-04-13T21:16:36.715Z,34.68
2023-04-13T21:19:04.233Z,34.50
2023-04-13T21:21:32.824Z,34.07
2023-04-13T21:24:00.747Z,34.16
2023-04-13T21:26:28.601Z,33.83
2023-04-13T21:28:56.322Z,34.06
2023-04-13T21:31:23.852Z,34.00
2023-04-13T21:33:51.449Z,34.28
2023-04-13T21:38:51.626Z,33.48
2023-04-13T21:41:20.572Z,33.54
2023-04-13T21:43:48.246Z,33.78
2023-04-13T21:46:16.292Z,33.68
2023-04-13T21:48:43.910Z,33.59
2023-04-13T21:51:11.356Z,33.31
2023-04-13T21:53:39.760Z,33.98
2023-04-13T21:56:09.819Z,34.15
2023-04-13T21:58:44.581Z,33.52
2023-04-13T22:01:13.698Z,33.99
2023-04-13T22:03:45.788Z,33.93
2023-04-13T22:06:14.134Z,33.68
2023-04-13T22:08:41.651Z,33.77
2023-04-13T22:11:09.286Z,34.11
2023-04-13T22:13:37.764Z,34.35
2023-04-13T22:16:05.634Z,33.59
2023-04-13T22:18:33.150Z,33.67
2023-04-13T22:21:00.709Z,33.52
2023-04-13T22:23:29.235Z,33.35
2023-04-13T22:26:03.909Z,33.90
2023-04-13T22:28:33.017Z,33.53
2023-04-13T22:31:10.138Z,34.27
2023-04-13T22:33:38.437Z,34.25
2023-04-13T22:36:16.660Z,33.83
2023-04-13T22:38:44.573Z,33.94
2023-04-13T22:41:12.204Z,34.12
2023-04-13T22:43:39.690Z,34.45
2023-04-13T22:46:07.999Z,34.78
2023-04-13T22:48:35.724Z,34.66
2023-04-13T22:51:06.241Z,34.54
2023-04-13T22:53:33.837Z,34.58
2023-04-13T22:56:01.509Z,35.08
2023-04-13T22:58:29.141Z,34.87
2023-04-13T23:00:56.945Z,34.84
2023-04-13T23:03:24.604Z,35.07
2023-04-13T23:05:52.477Z,34.79
2023-04-13T23:08:20.015Z,34.75
2023-04-13T23:10:48.133Z,35.37
2023-04-13T23:13:15.909Z,35.29
2023-04-13T23:15:43.516Z,35.36
2023-04-13T23:18:11.035Z,35.50
2023-04-13T23:20:38.614Z,35.50
2023-04-13T23:23:06.205Z,35.86
2023-04-13T23:25:33.717Z,35.77
2023-04-13T23:28:01.214Z,35.39
2023-04-13T23:30:28.730Z,35.60
2023-04-13T23:32:56.260Z,35.70
2023-04-13T23:35:26.145Z,35.91
2023-04-13T23:37:53.735Z,36.21
2023-04-13T23:40:21.224Z,36.47
2023-04-13T23:42:48.777Z,36.64
2023-04-13T23:45:16.235Z,36.55
2023-04-13T23:47:43.731Z,37.11
2023-04-13T23:50:11.423Z,36.94
2023-04-13T23:52:38.848Z,37.14
2023-04-13T23:55:06.735Z,37.36
2023-04-13T23:57:34.691Z,37.29
